sensor_id;sensor_type;location;lat;lon;timestamp;temperature;humidity
16140;DHT22;8175;49.326;12.690;2022-07-23T00:00:32;18.80;99.90
16140;DHT22;8175;49.326;12.690;2022-07-23T00:02:59;18.70;99.90
16140;DHT22;8175;49.326;12.690;2022-07-23T00:05:24;18.70;99.90
16140;DHT22;8175;49.326;12.690;2022-07-23T00:07:50;18.60;99.90
16140;DHT22;8175;49.326;12.690;2022-07-23T00:10:15;18.60;99.90
16140;DHT22;8175;49.326;12.690;2022-07-23T00:12:41;18.50;99.90
16140;DHT22;8175;49.326;12.690;2022-07-23T00:15:08;18.60;99.90
16140;DHT22;8175;49.326;12.690;2022-07-23T00:17:34;18.70;99.90
16140;DHT22;8175;49.326;12.690;2022-07-23T00:20:00;18.80;99.90
16140;DHT22;8175;49.326;12.690;2022-07-23T00:22:25;19.00;99.90
16140;DHT22;8175;49.326;12.690;2022-07-23T00:24:51;19.20;99.90
16140;DHT22;8175;49.326;12.690;2022-07-23T00:27:17;19.30;99.90
16140;DHT22;8175;49.326;12.690;2022-07-23T00:29:42;19.30;99.90
16140;DHT22;8175;49.326;12.690;2022-07-23T00:32:08;19.30;99.90
16140;DHT22;8175;49.326;12.690;2022-07-23T00:34:34;19.20;99.90
16140;DHT22;8175;49.326;12.690;2022-07-23T00:36:59;19.10;99.90
16140;DHT22;8175;49.326;12.690;2022-07-23T00:39:25;19.20;99.90
16140;DHT22;8175;49.326;12.690;2022-07-23T00:41:51;19.00;99.90
16140;DHT22;8175;49.326;12.690;2022-07-23T00:44:27;18.90;99.90
16140;DHT22;8175;49.326;12.690;2022-07-23T00:46:58;18.80;99.90
16140;DHT22;8175;49.326;12.690;2022-07-23T00:49:28;18.70;99.90
16140;DHT22;8175;49.326;12.690;2022-07-23T00:51:55;18.70;99.90
16140;DHT22;8175;49.326;12.690;2022-07-23T00:54:24;18.70;99.90
16140;DHT22;8175;49.326;12.690;2022-07-23T00:56:50;18.80;99.90
16140;DHT22;8175;49.326;12.690;2022-07-23T00:59:16;18.80;99.90
16140;DHT22;8175;49.326;12.690;2022-07-23T01:01:42;18.80;99.90
16140;DHT22;8175;49.326;12.690;2022-07-23T01:04:09;18.80;99.90
16140;DHT22;8175;49.326;12.690;2022-07-23T01:06:37;18.90;99.90
16140;DHT22;8175;49.326;12.690;2022-07-23T01:09:05;18.80;99.90
16140;DHT22;8175;49.326;12.690;2022-07-23T01:11:36;18.80;99.90
16140;DHT22;8175;49.326;12.690;2022-07-23T01:14:14;18.70;99.90
16140;DHT22;8175;49.326;12.690;2022-07-23T01:16:41;18.60;99.90
16140;DHT22;8175;49.326;12.690;2022-07-23T01:19:07;18.70;99.90
16140;DHT22;8175;49.326;12.690;2022-07-23T01:21:39;18.80;99.90
16140;DHT22;8175;49.326;12.690;2022-07-23T01:24:05;18.80;99.90
16140;DHT22;8175;49.326;12.690;2022-07-23T01:26:31;18.80;99.90
16140;DHT22;8175;49.326;12.690;2022-07-23T01:28:57;18.80;99.90
16140;DHT22;8175;49.326;12.690;2022-07-23T01:31:29;18.90;99.90
16140;DHT22;8175;49.326;12.690;2022-07-23T01:33:54;18.90;99.90
16140;DHT22;8175;49.326;12.690;2022-07-23T01:36:20;19.10;99.90
16140;DHT22;8175;49.326;12.690;2022-07-23T01:38:46;19.10;99.90
16140;DHT22;8175;49.326;12.690;2022-07-23T01:41:11;19.20;99.90
16140;DHT22;8175;49.326;12.690;2022-07-23T01:43:37;19.30;99.90
16140;DHT22;8175;49.326;12.690;2022-07-23T01:46:03;19.40;99.90
16140;DHT22;8175;49.326;12.690;2022-07-23T01:48:28;19.60;99.90
16140;DHT22;8175;49.326;12.690;2022-07-23T01:50:54;19.10;99.90
16140;DHT22;8175;49.326;12.690;2022-07-23T01:53:20;18.30;99.90
16140;DHT22;8175;49.326;12.690;2022-07-23T01:55:45;18.30;99.90
16140;DHT22;8175;49.326;12.690;2022-07-23T01:58:11;18.60;99.90
16140;DHT22;8175;49.326;12.690;2022-07-23T02:00:37;18.90;99.90
16140;DHT22;8175;49.326;12.690;2022-07-23T02:03:02;19.20;99.90
16140;DHT22;8175;49.326;12.690;2022-07-23T02:05:28;19.20;99.90
16140;DHT22;8175;49.326;12.690;2022-07-23T02:07:54;19.10;99.90
16140;DHT22;8175;49.326;12.690;2022-07-23T02:10:21;19.20;99.90
16140;DHT22;8175;49.326;12.690;2022-07-23T02:12:47;19.20;99.90
16140;DHT22;8175;49.326;12.690;2022-07-23T02:15:13;19.10;99.90
16140;DHT22;8175;49.326;12.690;2022-07-23T02:17:39;18.90;99.90
16140;DHT22;8175;49.326;12.690;2022-07-23T02:20:07;18.90;99.90
16140;DHT22;8175;49.326;12.690;2022-07-23T02:22:33;18.90;99.90
16140;DHT22;8175;49.326;12.690;2022-07-23T02:24:59;18.90;99.90
16140;DHT22;8175;49.326;12.690;2022-07-23T02:27:25;18.90;99.90
16140;DHT22;8175;49.326;12.690;2022-07-23T02:29:51;18.90;99.90
16140;DHT22;8175;49.326;12.690;2022-07-23T02:32:17;18.90;99.90
16140;DHT22;8175;49.326;12.690;2022-07-23T02:34:42;18.80;99.90
16140;DHT22;8175;49.326;12.690;2022-07-23T02:37:08;18.80;99.90
16140;DHT22;8175;49.326;12.690;2022-07-23T02:39:35;18.80;99.90
16140;DHT22;8175;49.326;12.690;2022-07-23T02:42:01;18.80;99.90
16140;DHT22;8175;49.326;12.690;2022-07-23T02:44:26;18.70;99.90
16140;DHT22;8175;49.326;12.690;2022-07-23T02:46:52;18.70;99.90
16140;DHT22;8175;49.326;12.690;2022-07-23T02:49:17;18.60;99.90
16140;DHT22;8175;49.326;12.690;2022-07-23T02:51:43;18.60;99.90
16140;DHT22;8175;49.326;12.690;2022-07-23T02:54:09;18.60;99.90
16140;DHT22;8175;49.326;12.690;2022-07-23T02:56:34;18.60;99.90
16140;DHT22;8175;49.326;12.690;2022-07-23T02:59:00;18.70;99.90
16140;DHT22;8175;49.326;12.690;2022-07-23T03:01:26;18.90;99.90
16140;DHT22;8175;49.326;12.690;2022-07-23T03:03:51;18.90;99.90
16140;DHT22;8175;49.326;12.690;2022-07-23T03:06:17;18.50;99.90
16140;DHT22;8175;49.326;12.690;2022-07-23T03:08:42;18.40;99.90
16140;DHT22;8175;49.326;12.690;2022-07-23T03:11:08;18.30;99.90
16140;DHT22;8175;49.326;12.690;2022-07-23T03:13:40;17.90;99.90
16140;DHT22;8175;49.326;12.690;2022-07-23T03:16:06;17.70;99.90
16140;DHT22;8175;49.326;12.690;2022-07-23T03:18:32;17.50;99.90
16140;DHT22;8175;49.326;12.690;2022-07-23T03:20:58;17.40;99.90
16140;DHT22;8175;49.326;12.690;2022-07-23T03:23:24;17.50;99.90
16140;DHT22;8175;49.326;12.690;2022-07-23T03:25:50;17.70;99.90
16140;DHT22;8175;49.326;12.690;2022-07-23T03:28:17;17.90;99.90
16140;DHT22;8175;49.326;12.690;2022-07-23T03:30:44;18.20;99.90
16140;DHT22;8175;49.326;12.690;2022-07-23T03:33:12;18.20;99.90
16140;DHT22;8175;49.326;12.690;2022-07-23T03:35:38;18.30;99.90
16140;DHT22;8175;49.326;12.690;2022-07-23T03:38:03;18.40;99.90
16140;DHT22;8175;49.326;12.690;2022-07-23T03:40:29;18.40;99.90
16140;DHT22;8175;49.326;12.690;2022-07-23T03:42:55;18.60;99.90
16140;DHT22;8175;49.326;12.690;2022-07-23T03:45:20;18.70;99.90
16140;DHT22;8175;49.326;12.690;2022-07-23T03:47:46;18.70;99.90
16140;DHT22;8175;49.326;12.690;2022-07-23T03:50:12;18.70;99.90
16140;DHT22;8175;49.326;12.690;2022-07-23T03:52:37;18.80;99.90
16140;DHT22;8175;49.326;12.690;2022-07-23T03:55:03;18.70;99.90
16140;DHT22;8175;49.326;12.690;2022-07-23T03:57:29;18.40;99.90
16140;DHT22;8175;49.326;12.690;2022-07-23T03:59:55;18.30;99.90
16140;DHT22;8175;49.326;12.690;2022-07-23T04:02:21;18.00;99.90
16140;DHT22;8175;49.326;12.690;2022-07-23T04:04:46;17.80;99.90
16140;DHT22;8175;49.326;12.690;2022-07-23T04:07:13;17.60;99.90
16140;DHT22;8175;49.326;12.690;2022-07-23T04:09:38;17.50;99.90
16140;DHT22;8175;49.326;12.690;2022-07-23T04:12:06;17.50;99.90
16140;DHT22;8175;49.326;12.690;2022-07-23T04:14:32;17.30;99.90
16140;DHT22;8175;49.326;12.690;2022-07-23T04:16:58;17.30;99.90
16140;DHT22;8175;49.326;12.690;2022-07-23T04:19:24;17.30;99.90
16140;DHT22;8175;49.326;12.690;2022-07-23T04:21:50;17.30;99.90
16140;DHT22;8175;49.326;12.690;2022-07-23T04:24:17;17.20;99.90
16140;DHT22;8175;49.326;12.690;2022-07-23T04:26:43;17.20;99.90
16140;DHT22;8175;49.326;12.690;2022-07-23T04:29:09;17.30;99.90
16140;DHT22;8175;49.326;12.690;2022-07-23T04:31:34;17.30;99.90
16140;DHT22;8175;49.326;12.690;2022-07-23T04:34:00;17.20;99.90
16140;DHT22;8175;49.326;12.690;2022-07-23T04:36:26;17.10;99.90
16140;DHT22;8175;49.326;12.690;2022-07-23T04:38:51;17.10;99.90
16140;DHT22;8175;49.326;12.690;2022-07-23T04:41:17;17.10;99.90
16140;DHT22;8175;49.326;12.690;2022-07-23T04:43:43;17.10;99.90
16140;DHT22;8175;49.326;12.690;2022-07-23T04:46:08;17.10;99.90
16140;DHT22;8175;49.326;12.690;2022-07-23T04:48:36;17.10;99.90
16140;DHT22;8175;49.326;12.690;2022-07-23T04:51:02;17.10;99.90
16140;DHT22;8175;49.326;12.690;2022-07-23T04:53:28;17.10;99.90
16140;DHT22;8175;49.326;12.690;2022-07-23T04:55:53;17.00;99.90
16140;DHT22;8175;49.326;12.690;2022-07-23T04:58:19;17.00;99.90
16140;DHT22;8175;49.326;12.690;2022-07-23T05:00:46;17.00;99.90
16140;DHT22;8175;49.326;12.690;2022-07-23T05:03:12;17.00;99.90
16140;DHT22;8175;49.326;12.690;2022-07-23T05:05:37;17.10;99.90
16140;DHT22;8175;49.326;12.690;2022-07-23T05:08:03;17.20;99.90
16140;DHT22;8175;49.326;12.690;2022-07-23T05:10:29;17.40;99.90
16140;DHT22;8175;49.326;12.690;2022-07-23T05:12:55;17.60;99.90
16140;DHT22;8175;49.326;12.690;2022-07-23T05:15:20;17.70;99.90
16140;DHT22;8175;49.326;12.690;2022-07-23T05:17:46;17.70;99.90
16140;DHT22;8175;49.326;12.690;2022-07-23T05:20:12;17.80;99.90
16140;DHT22;8175;49.326;12.690;2022-07-23T05:22:39;17.90;99.90
16140;DHT22;8175;49.326;12.690;2022-07-23T05:25:05;17.90;99.90
16140;DHT22;8175;49.326;12.690;2022-07-23T05:27:31;17.90;99.90
16140;DHT22;8175;49.326;12.690;2022-07-23T05:29:57;18.10;99.90
16140;DHT22;8175;49.326;12.690;2022-07-23T05:32:23;18.30;99.90
16140;DHT22;8175;49.326;12.690;2022-07-23T05:34:48;18.40;99.90
16140;DHT22;8175;49.326;12.690;2022-07-23T05:37:14;18.50;99.90
16140;DHT22;8175;49.326;12.690;2022-07-23T05:39:40;18.70;99.90
16140;DHT22;8175;49.326;12.690;2022-07-23T05:42:05;18.90;99.90
16140;DHT22;8175;49.326;12.690;2022-07-23T05:44:31;19.00;99.90
16140;DHT22;8175;49.326;12.690;2022-07-23T05:46:56;19.00;99.90
16140;DHT22;8175;49.326;12.690;2022-07-23T05:49:25;19.10;99.90
16140;DHT22;8175;49.326;12.690;2022-07-23T05:51:51;19.10;99.90
16140;DHT22;8175;49.326;12.690;2022-07-23T05:54:16;19.20;99.90
16140;DHT22;8175;49.326;12.690;2022-07-23T05:56:42;19.30;99.90
16140;DHT22;8175;49.326;12.690;2022-07-23T05:59:08;19.20;99.90
16140;DHT22;8175;49.326;12.690;2022-07-23T06:01:33;19.20;99.90
16140;DHT22;8175;49.326;12.690;2022-07-23T06:03:59;19.10;99.90
16140;DHT22;8175;49.326;12.690;2022-07-23T06:06:24;19.30;99.90
16140;DHT22;8175;49.326;12.690;2022-07-23T06:08:50;19.30;99.90
16140;DHT22;8175;49.326;12.690;2022-07-23T06:11:16;19.40;99.90
16140;DHT22;8175;49.326;12.690;2022-07-23T06:13:41;19.40;99.90
16140;DHT22;8175;49.326;12.690;2022-07-23T06:16:07;19.50;99.90
16140;DHT22;8175;49.326;12.690;2022-07-23T06:18:33;19.60;99.90
16140;DHT22;8175;49.326;12.690;2022-07-23T06:20:58;19.80;99.90
16140;DHT22;8175;49.326;12.690;2022-07-23T06:23:24;19.80;99.90
16140;DHT22;8175;49.326;12.690;2022-07-23T06:25:50;19.90;99.90
16140;DHT22;8175;49.326;12.690;2022-07-23T06:28:15;19.90;99.90
16140;DHT22;8175;49.326;12.690;2022-07-23T06:30:41;19.90;99.90
16140;DHT22;8175;49.326;12.690;2022-07-23T06:33:07;20.10;99.90
16140;DHT22;8175;49.326;12.690;2022-07-23T06:35:32;20.20;99.90
16140;DHT22;8175;49.326;12.690;2022-07-23T06:37:59;20.30;99.90
16140;DHT22;8175;49.326;12.690;2022-07-23T06:40:25;20.40;99.90
16140;DHT22;8175;49.326;12.690;2022-07-23T06:42:51;20.60;99.90
16140;DHT22;8175;49.326;12.690;2022-07-23T06:45:16;20.90;99.90
16140;DHT22;8175;49.326;12.690;2022-07-23T06:47:42;21.10;99.90
16140;DHT22;8175;49.326;12.690;2022-07-23T06:50:08;21.30;99.90
16140;DHT22;8175;49.326;12.690;2022-07-23T06:52:34;21.50;99.90
16140;DHT22;8175;49.326;12.690;2022-07-23T06:54:59;21.70;99.90
16140;DHT22;8175;49.326;12.690;2022-07-23T06:57:25;21.80;99.90
16140;DHT22;8175;49.326;12.690;2022-07-23T06:59:51;22.00;99.90
16140;DHT22;8175;49.326;12.690;2022-07-23T07:02:17;22.20;99.90
16140;DHT22;8175;49.326;12.690;2022-07-23T07:04:43;22.30;99.90
16140;DHT22;8175;49.326;12.690;2022-07-23T07:07:08;22.30;99.90
16140;DHT22;8175;49.326;12.690;2022-07-23T07:09:34;22.30;99.90
16140;DHT22;8175;49.326;12.690;2022-07-23T07:12:00;22.40;99.90
16140;DHT22;8175;49.326;12.690;2022-07-23T07:14:26;22.40;99.90
16140;DHT22;8175;49.326;12.690;2022-07-23T07:16:51;22.50;99.90
16140;DHT22;8175;49.326;12.690;2022-07-23T07:19:17;22.80;99.90
16140;DHT22;8175;49.326;12.690;2022-07-23T07:21:42;22.90;99.90
16140;DHT22;8175;49.326;12.690;2022-07-23T07:24:08;22.80;99.90
16140;DHT22;8175;49.326;12.690;2022-07-23T07:26:34;22.60;99.90
16140;DHT22;8175;49.326;12.690;2022-07-23T07:28:59;22.40;99.90
16140;DHT22;8175;49.326;12.690;2022-07-23T07:31:25;22.20;99.90
16140;DHT22;8175;49.326;12.690;2022-07-23T07:33:51;22.40;99.90
16140;DHT22;8175;49.326;12.690;2022-07-23T07:36:17;22.50;99.90
16140;DHT22;8175;49.326;12.690;2022-07-23T07:38:42;22.90;99.90
16140;DHT22;8175;49.326;12.690;2022-07-23T07:41:08;23.40;99.90
16140;DHT22;8175;49.326;12.690;2022-07-23T07:43:36;23.80;99.90
16140;DHT22;8175;49.326;12.690;2022-07-23T07:46:03;23.90;99.90
16140;DHT22;8175;49.326;12.690;2022-07-23T07:48:28;24.20;99.90
16140;DHT22;8175;49.326;12.690;2022-07-23T07:50:54;24.60;99.90
16140;DHT22;8175;49.326;12.690;2022-07-23T07:53:20;24.80;99.90
16140;DHT22;8175;49.326;12.690;2022-07-23T07:55:46;25.00;99.90
16140;DHT22;8175;49.326;12.690;2022-07-23T07:58:12;24.90;99.90
16140;DHT22;8175;49.326;12.690;2022-07-23T08:00:37;25.00;99.90
16140;DHT22;8175;49.326;12.690;2022-07-23T08:03:03;25.40;99.90
16140;DHT22;8175;49.326;12.690;2022-07-23T08:05:30;25.50;99.90
16140;DHT22;8175;49.326;12.690;2022-07-23T08:07:57;25.90;99.90
16140;DHT22;8175;49.326;12.690;2022-07-23T08:10:23;26.60;99.90
16140;DHT22;8175;49.326;12.690;2022-07-23T08:12:52;26.30;99.90
16140;DHT22;8175;49.326;12.690;2022-07-23T08:15:26;26.30;99.90
16140;DHT22;8175;49.326;12.690;2022-07-23T08:17:52;26.80;99.90
16140;DHT22;8175;49.326;12.690;2022-07-23T08:20:20;26.80;99.90
16140;DHT22;8175;49.326;12.690;2022-07-23T08:22:50;26.90;99.90
16140;DHT22;8175;49.326;12.690;2022-07-23T08:25:37;26.90;99.90
16140;DHT22;8175;49.326;12.690;2022-07-23T08:28:04;26.90;99.90
16140;DHT22;8175;49.326;12.690;2022-07-23T08:30:31;27.40;99.90
16140;DHT22;8175;49.326;12.690;2022-07-23T08:33:02;26.90;99.90
16140;DHT22;8175;49.326;12.690;2022-07-23T08:35:34;26.60;99.90
16140;DHT22;8175;49.326;12.690;2022-07-23T08:38:02;27.10;99.90
16140;DHT22;8175;49.326;12.690;2022-07-23T08:40:30;27.70;99.90
16140;DHT22;8175;49.326;12.690;2022-07-23T08:42:57;28.30;99.90
16140;DHT22;8175;49.326;12.690;2022-07-23T08:45:26;28.70;99.20
16140;DHT22;8175;49.326;12.690;2022-07-23T08:47:55;29.10;95.50
16140;DHT22;8175;49.326;12.690;2022-07-23T08:50:22;28.90;95.40
16140;DHT22;8175;49.326;12.690;2022-07-23T08:52:52;28.80;95.70
16140;DHT22;8175;49.326;12.690;2022-07-23T08:55:19;29.20;93.70
16140;DHT22;8175;49.326;12.690;2022-07-23T08:57:47;28.80;92.80
16140;DHT22;8175;49.326;12.690;2022-07-23T09:00:14;28.90;93.10
16140;DHT22;8175;49.326;12.690;2022-07-23T09:02:41;29.40;93.30
16140;DHT22;8175;49.326;12.690;2022-07-23T09:05:09;30.00;91.20
16140;DHT22;8175;49.326;12.690;2022-07-23T09:07:36;31.00;87.90
16140;DHT22;8175;49.326;12.690;2022-07-23T09:10:08;30.90;84.60
16140;DHT22;8175;49.326;12.690;2022-07-23T09:12:34;31.40;83.40
16140;DHT22;8175;49.326;12.690;2022-07-23T09:15:07;30.60;83.10
16140;DHT22;8175;49.326;12.690;2022-07-23T09:17:41;30.50;82.40
16140;DHT22;8175;49.326;12.690;2022-07-23T09:20:17;30.90;80.30
16140;DHT22;8175;49.326;12.690;2022-07-23T09:22:46;31.60;80.60
16140;DHT22;8175;49.326;12.690;2022-07-23T09:25:13;32.50;74.50
16140;DHT22;8175;49.326;12.690;2022-07-23T09:27:52;32.30;72.90
16140;DHT22;8175;49.326;12.690;2022-07-23T09:30:19;32.40;71.00
16140;DHT22;8175;49.326;12.690;2022-07-23T09:33:12;32.50;73.20
16140;DHT22;8175;49.326;12.690;2022-07-23T09:35:52;33.90;67.10
16140;DHT22;8175;49.326;12.690;2022-07-23T09:38:20;33.60;66.80
16140;DHT22;8175;49.326;12.690;2022-07-23T09:40:47;33.10;65.30
16140;DHT22;8175;49.326;12.690;2022-07-23T09:43:29;32.50;67.80
16140;DHT22;8175;49.326;12.690;2022-07-23T09:46:19;31.50;67.40
16140;DHT22;8175;49.326;12.690;2022-07-23T09:48:46;30.80;67.40
16140;DHT22;8175;49.326;12.690;2022-07-23T09:51:12;31.30;68.10
16140;DHT22;8175;49.326;12.690;2022-07-23T09:53:40;32.20;65.00
16140;DHT22;8175;49.326;12.690;2022-07-23T09:56:06;32.10;65.60
16140;DHT22;8175;49.326;12.690;2022-07-23T09:58:33;32.10;66.60
16140;DHT22;8175;49.326;12.690;2022-07-23T10:00:59;32.30;66.50
16140;DHT22;8175;49.326;12.690;2022-07-23T10:03:26;32.10;65.60
16140;DHT22;8175;49.326;12.690;2022-07-23T10:05:52;32.90;65.80
16140;DHT22;8175;49.326;12.690;2022-07-23T10:08:19;33.00;63.70
16140;DHT22;8175;49.326;12.690;2022-07-23T10:10:48;32.60;64.10
16140;DHT22;8175;49.326;12.690;2022-07-23T10:13:16;32.40;65.80
16140;DHT22;8175;49.326;12.690;2022-07-23T10:15:59;33.10;64.70
16140;DHT22;8175;49.326;12.690;2022-07-23T10:18:25;31.90;65.40
16140;DHT22;8175;49.326;12.690;2022-07-23T10:20:51;31.60;69.50
16140;DHT22;8175;49.326;12.690;2022-07-23T10:23:22;32.70;66.10
16140;DHT22;8175;49.326;12.690;2022-07-23T10:25:58;33.40;63.20
16140;DHT22;8175;49.326;12.690;2022-07-23T10:37:07;29.80;69.30
16140;DHT22;8175;49.326;12.690;2022-07-23T10:39:38;29.20;72.80
16140;DHT22;8175;49.326;12.690;2022-07-23T10:42:15;29.10;75.40
16140;DHT22;8175;49.326;12.690;2022-07-23T10:44:43;28.80;73.90
16140;DHT22;8175;49.326;12.690;2022-07-23T10:47:10;28.20;73.90
16140;DHT22;8175;49.326;12.690;2022-07-23T10:49:36;27.80;73.90
16140;DHT22;8175;49.326;12.690;2022-07-23T10:54:40;26.90;75.70
16140;DHT22;8175;49.326;12.690;2022-07-23T10:57:08;26.50;76.10
16140;DHT22;8175;49.326;12.690;2022-07-23T11:02:41;26.10;79.20
16140;DHT22;8175;49.326;12.690;2022-07-23T11:05:15;26.10;78.80
16140;DHT22;8175;49.326;12.690;2022-07-23T11:13:30;26.60;80.00
16140;DHT22;8175;49.326;12.690;2022-07-23T11:24:05;26.80;79.90
16140;DHT22;8175;49.326;12.690;2022-07-23T11:31:53;27.50;77.30
16140;DHT22;8175;49.326;12.690;2022-07-23T11:34:32;27.50;77.50
16140;DHT22;8175;49.326;12.690;2022-07-23T11:36:58;28.00;74.90
16140;DHT22;8175;49.326;12.690;2022-07-23T11:39:27;28.70;74.30
16140;DHT22;8175;49.326;12.690;2022-07-23T11:41:53;28.40;71.90
16140;DHT22;8175;49.326;12.690;2022-07-23T11:44:29;27.30;71.90
16140;DHT22;8175;49.326;12.690;2022-07-23T11:47:00;26.40;75.60
16140;DHT22;8175;49.326;12.690;2022-07-23T11:49:27;25.90;77.30
16140;DHT22;8175;49.326;12.690;2022-07-23T11:52:04;25.40;79.90
16140;DHT22;8175;49.326;12.690;2022-07-23T11:54:34;25.20;77.70
16140;DHT22;8175;49.326;12.690;2022-07-23T11:57:00;25.20;77.80
16140;DHT22;8175;49.326;12.690;2022-07-23T11:59:28;25.30;76.50
16140;DHT22;8175;49.326;12.690;2022-07-23T12:01:58;25.40;76.90
16140;DHT22;8175;49.326;12.690;2022-07-23T12:04:33;25.30;74.60
16140;DHT22;8175;49.326;12.690;2022-07-23T12:07:02;25.20;75.00
16140;DHT22;8175;49.326;12.690;2022-07-23T12:09:27;25.60;76.10
16140;DHT22;8175;49.326;12.690;2022-07-23T12:12:00;26.00;74.20
16140;DHT22;8175;49.326;12.690;2022-07-23T12:14:26;25.80;74.50
16140;DHT22;8175;49.326;12.690;2022-07-23T12:17:10;25.70;73.90
16140;DHT22;8175;49.326;12.690;2022-07-23T12:19:36;25.50;75.30
16140;DHT22;8175;49.326;12.690;2022-07-23T12:22:02;25.70;74.80
16140;DHT22;8175;49.326;12.690;2022-07-23T12:24:28;26.20;76.00
16140;DHT22;8175;49.326;12.690;2022-07-23T12:27:12;26.90;72.70
16140;DHT22;8175;49.326;12.690;2022-07-23T12:29:39;27.60;73.00
16140;DHT22;8175;49.326;12.690;2022-07-23T12:32:25;28.50;71.40
16140;DHT22;8175;49.326;12.690;2022-07-23T12:35:08;29.20;73.40
16140;DHT22;8175;49.326;12.690;2022-07-23T12:37:39;30.40;67.30
16140;DHT22;8175;49.326;12.690;2022-07-23T12:40:25;30.70;64.40
16140;DHT22;8175;49.326;12.690;2022-07-23T12:42:54;30.70;65.20
16140;DHT22;8175;49.326;12.690;2022-07-23T12:45:20;30.50;64.20
16140;DHT22;8175;49.326;12.690;2022-07-23T12:48:04;30.50;64.20
16140;DHT22;8175;49.326;12.690;2022-07-23T12:50:43;31.10;61.80
16140;DHT22;8175;49.326;12.690;2022-07-23T12:53:18;31.10;60.80
16140;DHT22;8175;49.326;12.690;2022-07-23T12:55:45;30.80;62.60
16140;DHT22;8175;49.326;12.690;2022-07-23T12:58:14;31.00;62.10
16140;DHT22;8175;49.326;12.690;2022-07-23T13:03:28;31.00;62.50
16140;DHT22;8175;49.326;12.690;2022-07-23T13:05:54;30.70;62.10
16140;DHT22;8175;49.326;12.690;2022-07-23T13:08:21;30.30;64.10
16140;DHT22;8175;49.326;12.690;2022-07-23T13:10:47;29.80;63.10
16140;DHT22;8175;49.326;12.690;2022-07-23T13:13:15;30.00;62.30
16140;DHT22;8175;49.326;12.690;2022-07-23T13:15:42;30.50;62.50
16140;DHT22;8175;49.326;12.690;2022-07-23T13:18:07;31.20;61.10
16140;DHT22;8175;49.326;12.690;2022-07-23T13:20:33;30.60;60.80
16140;DHT22;8175;49.326;12.690;2022-07-23T13:22:59;30.90;61.40
16140;DHT22;8175;49.326;12.690;2022-07-23T13:25:26;31.20;61.90
16140;DHT22;8175;49.326;12.690;2022-07-23T13:27:51;31.80;58.60
16140;DHT22;8175;49.326;12.690;2022-07-23T13:30:17;31.20;58.80
16140;DHT22;8175;49.326;12.690;2022-07-23T13:32:43;31.40;59.60
16140;DHT22;8175;49.326;12.690;2022-07-23T13:35:09;30.90;60.90
16140;DHT22;8175;49.326;12.690;2022-07-23T13:37:35;31.30;62.30
16140;DHT22;8175;49.326;12.690;2022-07-23T13:40:00;32.00;59.60
16140;DHT22;8175;49.326;12.690;2022-07-23T13:42:26;31.50;59.30
16140;DHT22;8175;49.326;12.690;2022-07-23T13:44:52;31.50;59.00
16140;DHT22;8175;49.326;12.690;2022-07-23T13:47:18;31.80;57.90
16140;DHT22;8175;49.326;12.690;2022-07-23T13:49:43;31.80;58.20
16140;DHT22;8175;49.326;12.690;2022-07-23T13:52:09;31.40;58.00
16140;DHT22;8175;49.326;12.690;2022-07-23T13:54:35;30.60;58.70
16140;DHT22;8175;49.326;12.690;2022-07-23T13:57:01;29.90;60.50
16140;DHT22;8175;49.326;12.690;2022-07-23T13:59:26;29.20;63.20
16140;DHT22;8175;49.326;12.690;2022-07-23T14:01:52;29.20;64.10
16140;DHT22;8175;49.326;12.690;2022-07-23T14:04:18;29.00;63.00
16140;DHT22;8175;49.326;12.690;2022-07-23T14:06:44;29.50;64.50
16140;DHT22;8175;49.326;12.690;2022-07-23T14:09:09;30.00;63.20
16140;DHT22;8175;49.326;12.690;2022-07-23T14:11:35;29.90;60.90
16140;DHT22;8175;49.326;12.690;2022-07-23T14:14:00;29.60;62.00
16140;DHT22;8175;49.326;12.690;2022-07-23T14:16:27;29.30;63.20
16140;DHT22;8175;49.326;12.690;2022-07-23T14:18:53;29.60;62.40
16140;DHT22;8175;49.326;12.690;2022-07-23T14:21:19;30.20;62.20
16140;DHT22;8175;49.326;12.690;2022-07-23T14:23:44;29.70;61.80
16140;DHT22;8175;49.326;12.690;2022-07-23T14:26:10;28.90;63.00
16140;DHT22;8175;49.326;12.690;2022-07-23T14:28:35;28.50;64.80
16140;DHT22;8175;49.326;12.690;2022-07-23T14:31:01;28.00;68.20
16140;DHT22;8175;49.326;12.690;2022-07-23T14:33:27;28.30;68.30
16140;DHT22;8175;49.326;12.690;2022-07-23T14:35:52;28.60;66.50
16140;DHT22;8175;49.326;12.690;2022-07-23T14:38:18;28.40;67.00
16140;DHT22;8175;49.326;12.690;2022-07-23T14:40:44;28.20;69.90
16140;DHT22;8175;49.326;12.690;2022-07-23T14:43:09;28.10;68.70
16140;DHT22;8175;49.326;12.690;2022-07-23T14:45:35;28.10;69.80
16140;DHT22;8175;49.326;12.690;2022-07-23T14:48:01;27.70;69.30
16140;DHT22;8175;49.326;12.690;2022-07-23T14:50:28;27.70;70.40
16140;DHT22;8175;49.326;12.690;2022-07-23T14:52:54;28.00;67.40
16140;DHT22;8175;49.326;12.690;2022-07-23T14:55:20;28.10;69.10
16140;DHT22;8175;49.326;12.690;2022-07-23T14:57:45;27.80;70.20
16140;DHT22;8175;49.326;12.690;2022-07-23T15:00:12;28.00;69.00
16140;DHT22;8175;49.326;12.690;2022-07-23T15:02:38;28.40;69.10
16140;DHT22;8175;49.326;12.690;2022-07-23T15:05:04;29.10;67.40
16140;DHT22;8175;49.326;12.690;2022-07-23T15:07:30;29.30;69.10
16140;DHT22;8175;49.326;12.690;2022-07-23T15:09:56;29.40;65.90
16140;DHT22;8175;49.326;12.690;2022-07-23T15:12:22;29.10;66.60
16140;DHT22;8175;49.326;12.690;2022-07-23T15:14:48;28.80;68.00
16140;DHT22;8175;49.326;12.690;2022-07-23T15:17:14;29.40;65.50
16140;DHT22;8175;49.326;12.690;2022-07-23T15:19:39;29.80;64.50
16140;DHT22;8175;49.326;12.690;2022-07-23T15:22:05;29.80;67.30
16140;DHT22;8175;49.326;12.690;2022-07-23T15:24:31;29.90;63.70
16140;DHT22;8175;49.326;12.690;2022-07-23T15:26:57;29.50;61.90
16140;DHT22;8175;49.326;12.690;2022-07-23T15:29:22;29.00;62.10
16140;DHT22;8175;49.326;12.690;2022-07-23T15:31:48;28.50;63.60
16140;DHT22;8175;49.326;12.690;2022-07-23T15:34:14;28.10;64.50
16140;DHT22;8175;49.326;12.690;2022-07-23T15:36:39;28.20;65.50
16140;DHT22;8175;49.326;12.690;2022-07-23T15:39:05;28.80;64.80
16140;DHT22;8175;49.326;12.690;2022-07-23T15:41:31;29.60;63.50
16140;DHT22;8175;49.326;12.690;2022-07-23T15:43:57;29.90;62.10
16140;DHT22;8175;49.326;12.690;2022-07-23T15:46:23;30.30;60.40
16140;DHT22;8175;49.326;12.690;2022-07-23T15:48:50;30.20;59.80
16140;DHT22;8175;49.326;12.690;2022-07-23T15:51:16;29.80;61.60
16140;DHT22;8175;49.326;12.690;2022-07-23T15:53:42;29.60;61.90
16140;DHT22;8175;49.326;12.690;2022-07-23T15:56:08;29.30;63.50
16140;DHT22;8175;49.326;12.690;2022-07-23T15:58:34;29.30;62.20
16140;DHT22;8175;49.326;12.690;2022-07-23T16:01:00;29.10;63.10
16140;DHT22;8175;49.326;12.690;2022-07-23T16:03:32;29.00;64.10
16140;DHT22;8175;49.326;12.690;2022-07-23T16:05:58;28.80;64.80